createdAt,value
2019-02-04T00:00:37.908Z,10.17
2019-02-04T00:01:43.697Z,10.33
2019-02-04T00:02:48.185Z,10.47
2019-02-04T00:03:52.598Z,10.67
2019-02-04T00:04:57.018Z,10.53
2019-02-04T00:06:01.458Z,10.27
2019-02-04T00:07:06.052Z,10.90
2019-02-04T00:08:11.354Z,9.90
2019-02-04T00:09:15.748Z,10.73
2019-02-04T00:10:20.247Z,10.47
2019-02-04T00:11:24.826Z,10.20
2019-02-04T00:12:29.203Z,10.67
2019-02-04T00:13:33.782Z,10.63
2019-02-04T00:14:38.148Z,11.03
2019-02-04T00:15:42.617Z,11.60
2019-02-04T00:16:47.080Z,11.27
2019-02-04T00:17:52.224Z,11.17
2019-02-04T00:18:56.872Z,11.27
2019-02-04T00:20:01.247Z,11.33
2019-02-04T00:21:05.677Z,11.43
2019-02-04T00:22:10.116Z,11.40
2019-02-04T00:23:14.546Z,11.70
2019-02-04T00:24:19.000Z,12.30
2019-02-04T00:25:23.800Z,11.67
2019-02-04T00:26:28.586Z,12.60
2019-02-04T00:27:33.107Z,11.63
2019-02-04T00:28:37.476Z,12.07
2019-02-04T00:29:41.915Z,10.70
2019-02-04T00:30:46.371Z,10.90
2019-02-04T00:31:50.738Z,11.37
2019-02-04T00:32:55.511Z,11.63
2019-02-04T00:33:59.927Z,11.97
2019-02-04T00:35:04.944Z,11.40
2019-02-04T00:36:09.576Z,12.37
2019-02-04T00:37:14.009Z,12.50
2019-02-04T00:38:18.681Z,11.93
2019-02-04T00:39:23.214Z,12.93
2019-02-04T00:40:27.800Z,13.00
2019-02-04T00:41:32.182Z,11.93
2019-02-04T00:42:36.533Z,11.87
2019-02-04T00:43:41.397Z,11.93
2019-02-04T00:44:45.966Z,14.87
2019-02-04T00:45:50.335Z,12.37
2019-02-04T00:46:54.872Z,11.47
2019-02-04T00:47:59.377Z,12.67
2019-02-04T00:49:03.848Z,12.67
2019-02-04T00:50:08.881Z,12.67
2019-02-04T00:51:13.311Z,13.80
2019-02-04T00:52:17.828Z,11.90
2019-02-04T00:53:22.236Z,12.93
2019-02-04T00:54:26.695Z,12.90
2019-02-04T00:55:31.132Z,12.97
2019-02-04T00:56:35.567Z,12.93
2019-02-04T00:57:39.984Z,12.37
2019-02-04T00:58:44.463Z,13.03
2019-02-04T00:59:48.895Z,13.13
2019-02-04T01:00:53.668Z,12.77
2019-02-04T01:01:58.001Z,11.87
2019-02-04T01:03:03.089Z,13.40
2019-02-04T01:04:07.549Z,12.33
2019-02-04T01:05:12.812Z,11.33
2019-02-04T01:06:17.616Z,10.77
2019-02-04T01:07:22.028Z,11.53
2019-02-04T01:08:26.424Z,12.27
2019-02-04T01:09:30.809Z,13.10
2019-02-04T01:10:35.173Z,12.03
2019-02-04T01:11:39.551Z,12.57
2019-02-04T01:12:43.962Z,12.80
2019-02-04T01:13:48.421Z,11.77
2019-02-04T01:14:52.765Z,12.77
2019-02-04T01:15:57.213Z,11.57
2019-02-04T01:17:03.549Z,11.87
2019-02-04T01:18:07.818Z,11.47
2019-02-04T01:19:12.598Z,12.53
2019-02-04T01:20:26.286Z,12.97
2019-02-04T01:21:31.021Z,11.97
2019-02-04T01:22:35.796Z,12.10
2019-02-04T01:23:40.282Z,12.10
2019-02-04T01:24:44.778Z,12.03
2019-02-04T01:25:49.176Z,12.13
2019-02-04T01:26:53.560Z,12.90
2019-02-04T01:27:57.946Z,13.60
2019-02-04T01:29:02.300Z,13.43
2019-02-04T01:30:07.328Z,11.77
2019-02-04T01:31:31.384Z,13.57
2019-02-04T01:32:35.966Z,13.50
2019-02-04T01:33:40.393Z,12.17
2019-02-04T01:34:45.013Z,12.83
2019-02-04T01:35:49.564Z,12.60
2019-02-04T01:36:54.716Z,12.57
2019-02-04T01:37:59.144Z,14.07
2019-02-04T01:39:04.861Z,13.57
2019-02-04T01:40:15.861Z,14.27
2019-02-04T01:41:20.402Z,13.30
2019-02-04T01:42:25.212Z,14.10
2019-02-04T01:43:29.804Z,13.70
2019-02-04T01:44:35.829Z,14.43
2019-02-04T01:45:40.191Z,14.47
2019-02-04T01:46:44.674Z,14.47
2019-02-04T01:47:49.248Z,13.30
2019-02-04T01:48:54.125Z,14.90
2019-02-04T01:49:58.596Z,15.10
2019-02-04T01:51:02.989Z,14.97
2019-02-04T01:52:07.489Z,14.83
2019-02-04T01:53:12.109Z,14.17
2019-02-04T01:54:16.585Z,14.20
2019-02-04T01:55:21.200Z,14.67
2019-02-04T01:56:26.500Z,14.60
2019-02-04T01:57:31.139Z,14.83
2019-02-04T01:58:35.728Z,14.43
2019-02-04T01:59:40.165Z,15.33
2019-02-04T02:00:44.796Z,14.60
2019-02-04T02:01:49.219Z,14.07
2019-02-04T02:02:53.777Z,14.73
2019-02-04T02:03:58.264Z,14.00
2019-02-04T02:05:02.681Z,14.87
2019-02-04T02:06:07.468Z,14.27
2019-02-04T02:07:12.131Z,14.33
2019-02-04T02:08:17.038Z,13.13
2019-02-04T02:09:22.799Z,14.03
2019-02-04T02:10:28.718Z,14.00
2019-02-04T02:11:33.304Z,15.30
2019-02-04T02:12:37.843Z,14.03
2019-02-04T02:13:42.309Z,14.10
2019-02-04T02:14:46.909Z,14.37
2019-02-04T02:15:51.535Z,13.73
2019-02-04T02:16:58.977Z,14.63
2019-02-04T02:18:03.824Z,13.23
2019-02-04T02:19:08.288Z,12.83
2019-02-04T02:20:15.016Z,13.23
2019-02-04T02:21:19.634Z,14.40
2019-02-04T02:22:25.381Z,14.57
2019-02-04T02:23:30.009Z,13.03
2019-02-04T02:24:34.662Z,12.93
2019-02-04T02:25:39.171Z,13.50
2019-02-04T02:26:43.848Z,13.50
2019-02-04T02:27:49.017Z,13.57
2019-02-04T02:28:53.527Z,13.93
2019-02-04T02:29:57.997Z,13.27
2019-02-04T02:31:02.608Z,14.40
2019-02-04T02:32:07.278Z,14.27
2019-02-04T02:33:11.764Z,13.97
2019-02-04T02:34:16.303Z,13.67
2019-02-04T02:35:20.854Z,14.17
2019-02-04T02:36:26.505Z,13.63
2019-02-04T02:37:31.053Z,13.07
2019-02-04T02:38:35.620Z,14.40
2019-02-04T02:39:40.390Z,14.60
2019-02-04T02:40:44.992Z,15.07
2019-02-04T02:41:49.497Z,16.03
2019-02-04T02:42:54.017Z,16.13
2019-02-04T02:43:58.577Z,14.63
2019-02-04T02:45:03.491Z,16.40
2019-02-04T02:46:07.891Z,15.13
2019-02-04T02:47:12.355Z,14.57
2019-02-04T02:48:16.877Z,15.30
2019-02-04T02:49:21.493Z,15.20
2019-02-04T02:50:26.426Z,14.40
2019-02-04T02:51:30.895Z,14.07
2019-02-04T02:52:35.578Z,15.03
2019-02-04T02:53:40.149Z,14.73
2019-02-04T02:54:44.607Z,15.13
2019-02-04T02:55:49.014Z,14.90
2019-02-04T02:56:53.474Z,16.27
2019-02-04T02:57:58.105Z,15.27
2019-02-04T02:59:02.776Z,15.50
2019-02-04T03:00:09.306Z,15.90
2019-02-04T03:01:13.887Z,14.57
2019-02-04T03:02:18.478Z,15.33
2019-02-04T03:03:23.384Z,15.37
2019-02-04T03:04:28.530Z,15.60
2019-02-04T03:05:33.075Z,15.73
2019-02-04T03:06:37.637Z,14.30
2019-02-04T03:07:42.204Z,15.00
2019-02-04T03:08:46.801Z,15.13
2019-02-04T03:09:51.214Z,15.53
2019-02-04T03:10:56.137Z,15.83
2019-02-04T03:12:00.611Z,14.77
2019-02-04T03:13:05.327Z,15.50
2019-02-04T03:14:10.028Z,15.77
2019-02-04T03:15:14.764Z,15.87
2019-02-04T03:16:19.311Z,16.50
2019-02-04T03:17:24.197Z,15.47
2019-02-04T03:18:28.950Z,17.40
2019-02-04T03:19:33.461Z,16.07
2019-02-04T03:20:38.022Z,16.17
2019-02-04T03:21:42.861Z,16.17
2019-02-04T03:22:47.299Z,16.27
2019-02-04T03:23:51.997Z,17.17
2019-02-04T03:24:58.769Z,16.07
2019-02-04T03:26:03.184Z,17.17
2019-02-04T03:27:09.449Z,15.97
2019-02-04T03:28:13.888Z,17.67
2019-02-04T03:29:18.626Z,16.60
2019-02-04T03:30:25.714Z,17.40
2019-02-04T03:31:30.437Z,17.10
2019-02-04T03:32:34.864Z,17.33
2019-02-04T03:33:39.765Z,16.50
2019-02-04T03:34:44.198Z,16.10
2019-02-04T03:35:48.637Z,17.13
2019-02-04T03:36:53.240Z,16.77
2019-02-04T03:37:57.714Z,16.80
2019-02-04T03:39:02.248Z,17.77
2019-02-04T03:40:07.287Z,17.97
2019-02-04T03:41:12.128Z,17.00
2019-02-04T03:42:16.831Z,17.03
2019-02-04T03:43:23.658Z,16.17
2019-02-04T03:44:28.141Z,17.53
2019-02-04T03:45:33.003Z,17.97
2019-02-04T03:46:37.439Z,17.70
2019-02-04T03:47:41.792Z,18.07
2019-02-04T03:48:46.558Z,16.80
2019-02-04T03:49:51.050Z,17.87
2019-02-04T03:50:56.569Z,17.23
2019-02-04T03:52:00.933Z,17.07
2019-02-04T03:53:05.889Z,17.30
2019-02-04T03:54:11.594Z,18.10
2019-02-04T03:55:16.832Z,17.70
2019-02-04T03:56:21.300Z,17.80
2019-02-04T03:57:25.833Z,18.00
2019-02-04T03:58:30.280Z,18.17
2019-02-04T03:59:34.870Z,18.40
2019-02-04T04:00:39.618Z,18.87
2019-02-04T04:01:44.553Z,19.03
2019-02-04T04:02:49.182Z,18.47
2019-02-04T04:03:53.913Z,19.77
2019-02-04T04:04:58.285Z,18.30
2019-02-04T04:06:02.813Z,17.73
2019-02-04T04:07:13.172Z,17.20
2019-02-04T04:08:17.541Z,17.83
2019-02-04T04:09:22.387Z,18.73
2019-02-04T04:10:27.189Z,20.27
2019-02-04T04:11:31.656Z,19.27
2019-02-04T04:12:36.157Z,17.23
2019-02-04T04:13:40.619Z,17.83
2019-02-04T04:14:45.080Z,18.37
2019-02-04T04:15:49.779Z,19.10
2019-02-04T04:16:54.332Z,19.90
2019-02-04T04:17:58.943Z,19.37
2019-02-04T04:19:03.393Z,17.67
2019-02-04T04:20:10.263Z,18.70
2019-02-04T04:21:15.049Z,19.23
2019-02-04T04:22:19.804Z,19.50
2019-02-04T04:23:24.289Z,19.40
2019-02-04T04:24:30.498Z,19.30
2019-02-04T04:25:34.942Z,18.43
2019-02-04T04:26:39.529Z,19.90
2019-02-04T04:27:44.008Z,19.53
2019-02-04T04:28:48.501Z,19.47
2019-02-04T04:29:53.098Z,19.37
2019-02-04T04:30:57.632Z,19.13
2019-02-04T04:32:02.199Z,18.87
2019-02-04T04:33:07.117Z,19.37
2019-02-04T04:34:11.887Z,19.17
2019-02-04T04:35:16.452Z,19.87
2019-02-04T04:36:21.220Z,19.63
2019-02-04T04:37:25.641Z,18.97
2019-02-04T04:38:32.713Z,19.37
2019-02-04T04:39:37.355Z,19.10
2019-02-04T04:40:42.257Z,19.53
2019-02-04T04:41:46.733Z,21.60
2019-02-04T04:42:51.324Z,19.67
2019-02-04T04:43:55.812Z,19.60
2019-02-04T04:45:00.322Z,19.20
2019-02-04T04:46:04.747Z,20.93
2019-02-04T04:47:09.201Z,20.10
2019-02-04T04:48:13.642Z,20.63
2019-02-04T04:49:18.033Z,19.23
2019-02-04T04:50:22.781Z,19.17
2019-02-04T04:51:27.186Z,19.37
2019-02-04T04:52:31.706Z,20.53
2019-02-04T04:53:36.165Z,19.93
2019-02-04T04:54:40.560Z,21.70
2019-02-04T04:55:44.965Z,21.27
2019-02-04T04:56:49.445Z,20.97
2019-02-04T04:57:54.524Z,21.80
2019-02-04T04:58:59.349Z,20.87
2019-02-04T05:00:03.902Z,21.33
2019-02-04T05:01:08.780Z,19.70
2019-02-04T05:02:13.228Z,20.93
2019-02-04T05:03:17.646Z,21.47
2019-02-04T05:04:22.177Z,20.37
2019-02-04T05:05:26.765Z,19.37
2019-02-04T05:06:31.219Z,20.63
2019-02-04T05:07:35.783Z,19.40
2019-02-04T05:08:40.470Z,19.77
2019-02-04T05:09:45.088Z,19.33
2019-02-04T05:10:49.588Z,20.23
2019-02-04T05:11:54.172Z,18.47
2019-02-04T05:12:58.576Z,20.83
2019-02-04T05:14:03.005Z,20.93
2019-02-04T05:15:08.709Z,19.27
2019-02-04T05:16:13.522Z,20.00
2019-02-04T05:17:17.878Z,20.67
2019-02-04T05:18:22.369Z,20.53
2019-02-04T05:19:26.809Z,19.60
2019-02-04T05:20:31.376Z,19.67
2019-02-04T05:21:35.733Z,20.47
2019-02-04T05:22:40.419Z,18.87
2019-02-04T05:23:44.941Z,20.63
2019-02-04T05:24:49.470Z,21.17
2019-02-04T05:25:53.954Z,20.77
2019-02-04T05:26:58.364Z,19.80
2019-02-04T05:28:02.866Z,20.33
2019-02-04T05:29:07.417Z,20.03
2019-02-04T05:30:14.203Z,20.47
2019-02-04T05:31:18.789Z,20.97
2019-02-04T05:32:23.388Z,20.73
2019-02-04T05:33:28.051Z,20.70
2019-02-04T05:34:32.842Z,20.63
2019-02-04T05:35:37.997Z,21.30
2019-02-04T05:36:43.174Z,21.67
2019-02-04T05:37:48.310Z,20.97
2019-02-04T05:38:52.826Z,20.97
2019-02-04T05:39:57.332Z,19.60
2019-02-04T05:41:01.771Z,22.40
2019-02-04T05:42:06.289Z,21.37
2019-02-04T05:43:11.428Z,21.20
2019-02-04T05:44:15.872Z,21.57
2019-02-04T05:45:22.363Z,21.23
2019-02-04T05:46:27.002Z,21.30
2019-02-04T05:47:31.634Z,21.20
2019-02-04T05:48:36.118Z,20.53
2019-02-04T05:49:40.558Z,20.97
2019-02-04T05:50:45.024Z,21.80
2019-02-04T05:51:50.440Z,20.70
2019-02-04T05:52:54.799Z,20.63
2019-02-04T05:53:59.750Z,21.23
2019-02-04T05:55:04.906Z,21.47
2019-02-04T05:56:09.422Z,22.60
2019-02-04T05:57:14.373Z,22.43
2019-02-04T05:58:18.805Z,21.33
2019-02-04T05:59:23.667Z,20.50
2019-02-04T06:00:40.833Z,21.37
2019-02-04T06:01:46.134Z,20.93
2019-02-04T06:02:50.741Z,20.90
2019-02-04T06:03:55.268Z,21.07
2019-02-04T06:04:59.744Z,21.73
2019-02-04T06:06:04.714Z,20.53
2019-02-04T06:07:09.801Z,21.00
2019-02-04T06:08:14.392Z,22.33
2019-02-04T06:09:20.221Z,21.07
2019-02-04T06:10:24.983Z,21.90
2019-02-04T06:11:30.709Z,21.63
2019-02-04T06:12:36.246Z,22.17
2019-02-04T06:13:40.760Z,21.43
2019-02-04T06:14:46.843Z,21.20
2019-02-04T06:15:51.414Z,20.50
2019-02-04T06:16:56.246Z,21.00
2019-02-04T06:18:01.254Z,20.23
2019-02-04T06:19:06.256Z,21.87
2019-02-04T06:20:13.860Z,20.37
2019-02-04T06:21:18.526Z,20.67
2019-02-04T06:22:23.006Z,20.87
2019-02-04T06:23:27.593Z,20.37
2019-02-04T06:24:32.284Z,19.67
2019-02-04T06:25:36.770Z,20.87
2019-02-04T06:26:41.516Z,20.03
2019-02-04T06:27:46.145Z,20.03
2019-02-04T06:28:51.012Z,21.13
2019-02-04T06:29:55.619Z,19.87
2019-02-04T06:31:00.220Z,19.80
2019-02-04T06:32:05.101Z,21.73
2019-02-04T06:33:09.733Z,19.83
2019-02-04T06:34:16.424Z,20.43
2019-02-04T06:35:21.091Z,19.50
2019-02-04T06:36:25.822Z,21.37
2019-02-04T06:37:30.701Z,20.10
2019-02-04T06:38:35.415Z,19.53
2019-02-04T06:39:39.969Z,20.73
2019-02-04T06:40:44.458Z,20.37
2019-02-04T06:41:49.054Z,20.20
2019-02-04T06:42:53.757Z,20.67
2019-02-04T06:43:58.434Z,22.20
2019-02-04T06:45:02.970Z,22.23
2019-02-04T06:46:07.565Z,20.37
2019-02-04T06:47:12.342Z,20.77
2019-02-04T06:48:16.891Z,20.10
2019-02-04T06:49:21.434Z,21.23
2019-02-04T06:50:25.922Z,19.17
2019-02-04T06:51:30.455Z,19.87
2019-02-04T06:52:34.990Z,18.80
2019-02-04T06:53:39.533Z,20.23
2019-02-04T06:54:44.305Z,22.00
2019-02-04T06:55:49.151Z,20.37
2019-02-04T06:56:53.726Z,20.23
2019-02-04T06:57:58.409Z,21.80
2019-02-04T06:59:03.351Z,21.53
2019-02-04T07:00:09.193Z,20.40
2019-02-04T07:01:14.387Z,20.30
2019-02-04T07:02:19.153Z,20.10
2019-02-04T07:03:24.105Z,20.20
2019-02-04T07:04:28.622Z,19.23
2019-02-04T07:05:43.137Z,19.17
2019-02-04T07:06:39.251Z,18.77
2019-02-04T07:07:43.781Z,19.30
2019-02-04T07:08:48.299Z,19.57
2019-02-04T07:09:52.801Z,20.50
2019-02-04T07:10:57.365Z,19.37
2019-02-04T07:12:01.968Z,18.33
2019-02-04T07:13:06.776Z,18.70
2019-02-04T07:14:11.494Z,18.20
2019-02-04T07:15:16.499Z,20.00
2019-02-04T07:16:20.989Z,18.33
2019-02-04T07:17:25.546Z,19.57
2019-02-04T07:18:30.445Z,19.77
2019-02-04T07:19:35.273Z,19.33
2019-02-04T07:20:39.926Z,20.30
2019-02-04T07:21:44.572Z,18.67
2019-02-04T07:22:49.138Z,19.63
2019-02-04T07:23:53.915Z,18.60
2019-02-04T07:24:58.427Z,19.03
2019-02-04T07:26:02.943Z,17.97
2019-02-04T07:27:07.526Z,19.53
2019-02-04T07:28:12.314Z,19.30
2019-02-04T07:29:17.221Z,20.93
2019-02-04T07:30:23.916Z,19.60
2019-02-04T07:31:28.783Z,20.47
2019-02-04T07:32:33.310Z,18.70
2019-02-04T07:33:37.892Z,19.63
2019-02-04T07:34:42.389Z,20.10
2019-02-04T07:35:46.981Z,21.30
2019-02-04T07:36:51.450Z,20.50
2019-02-04T07:37:56.016Z,20.60
2019-02-04T07:39:00.536Z,19.87
2019-02-04T07:40:06.809Z,19.63
2019-02-04T07:41:11.211Z,20.00
2019-02-04T07:42:16.211Z,20.33
2019-02-04T07:43:20.630Z,19.70
2019-02-04T07:44:25.240Z,20.97
2019-02-04T07:45:30.020Z,20.40
2019-02-04T07:46:34.460Z,20.60
2019-02-04T07:47:38.903Z,19.70
2019-02-04T07:48:43.890Z,20.07
2019-02-04T07:49:48.254Z,20.83
2019-02-04T07:50:52.680Z,20.27
2019-02-04T07:51:57.033Z,21.13
2019-02-04T07:53:01.475Z,21.23
2019-02-04T07:54:06.202Z,21.10
2019-02-04T07:55:10.789Z,19.13
2019-02-04T07:56:15.429Z,19.10
2019-02-04T07:57:20.325Z,19.20
2019-02-04T07:58:24.997Z,19.37
2019-02-04T07:59:29.747Z,18.87
2019-02-04T08:00:34.668Z,19.77
2019-02-04T08:01:39.289Z,16.73
2019-02-04T08:02:44.451Z,17.90
2019-02-04T08:03:49.142Z,16.83
2019-02-04T08:04:54.209Z,16.73
2019-02-04T08:05:58.723Z,17.23
2019-02-04T08:07:03.721Z,16.47
2019-02-04T08:08:08.791Z,16.63
2019-02-04T08:09:13.830Z,16.20
2019-02-04T08:10:18.908Z,16.50
2019-02-04T08:11:23.526Z,16.00
2019-02-04T08:12:28.201Z,16.17
2019-02-04T08:13:32.708Z,15.83
2019-02-04T08:14:38.643Z,16.13
2019-02-04T08:15:43.182Z,16.27
2019-02-04T08:16:47.596Z,16.23
2019-02-04T08:17:52.061Z,14.63
2019-02-04T08:18:56.602Z,15.17
2019-02-04T08:20:00.980Z,16.63
2019-02-04T08:21:05.485Z,14.30
2019-02-04T08:22:10.006Z,14.47
2019-02-04T08:23:14.682Z,13.67
2019-02-04T08:24:19.053Z,14.70
2019-02-04T08:25:25.987Z,16.10
2019-02-04T08:26:30.626Z,15.00
2019-02-04T08:27:35.150Z,14.50
2019-02-04T08:28:39.617Z,14.17
2019-02-04T08:29:44.089Z,14.43
2019-02-04T08:30:48.495Z,13.70
2019-02-04T08:31:52.957Z,13.10
2019-02-04T08:32:57.609Z,12.83
2019-02-04T08:34:02.091Z,12.73
2019-02-04T08:35:06.689Z,12.17
2019-02-04T08:36:11.530Z,13.13
2019-02-04T08:37:16.080Z,11.97
2019-02-04T08:38:20.595Z,12.67
2019-02-04T08:39:25.088Z,11.90
2019-02-04T08:40:30.138Z,12.97
2019-02-04T08:41:34.529Z,12.80
2019-02-04T08:42:39.231Z,11.80
2019-02-04T08:43:43.631Z,11.90
2019-02-04T08:44:48.143Z,11.17
2019-02-04T08:45:52.732Z,11.47
2019-02-04T08:46:57.171Z,10.80
2019-02-04T08:48:01.735Z,11.87
2019-02-04T08:49:06.176Z,11.20
2019-02-04T08:50:12.657Z,10.83
2019-02-04T08:51:17.198Z,11.30
2019-02-04T08:52:21.981Z,10.93
2019-02-04T08:53:26.877Z,11.00
2019-02-04T08:54:31.686Z,10.70
2019-02-04T08:55:36.660Z,10.20
2019-02-04T08:56:42.971Z,10.37
2019-02-04T08:57:47.444Z,10.43
2019-02-04T08:58:51.864Z,11.47
2019-02-04T08:59:56.713Z,11.00
2019-02-04T09:01:01.149Z,10.10
2019-02-04T09:02:05.738Z,10.87
2019-02-04T09:03:10.578Z,10.17
2019-02-04T09:04:15.244Z,10.10
2019-02-04T09:05:20.364Z,9.80
2019-02-04T09:06:24.885Z,10.23
2019-02-04T09:07:29.402Z,10.10
2019-02-04T09:08:33.992Z,9.50
2019-02-04T09:09:38.424Z,9.80
2019-02-04T09:10:42.858Z,9.70
2019-02-04T09:11:47.297Z,9.90
2019-02-04T09:12:51.909Z,9.87
2019-02-04T09:13:56.441Z,10.20
2019-02-04T09:15:00.886Z,10.07
2019-02-04T09:16:05.839Z,9.63
2019-02-04T09:17:10.506Z,9.77
2019-02-04T09:18:15.218Z,9.37
2019-02-04T09:19:19.911Z,8.60
2019-02-04T09:20:24.355Z,8.60
2019-02-04T09:21:28.904Z,8.57
2019-02-04T09:22:33.600Z,8.43
2019-02-04T09:23:38.064Z,7.43
2019-02-04T09:24:42.576Z,8.90
2019-02-04T09:25:46.916Z,9.37
2019-02-04T09:26:51.388Z,8.13
2019-02-04T09:27:56.061Z,8.30
2019-02-04T09:29:00.576Z,8.77
2019-02-04T09:30:05.896Z,8.07
2019-02-04T09:31:10.572Z,8.50
2019-02-04T09:32:15.133Z,8.00
2019-02-04T09:33:19.953Z,7.87
2019-02-04T09:34:24.581Z,8.10
2019-02-04T09:35:29.586Z,7.67
2019-02-04T09:36:34.106Z,8.50
2019-02-04T09:37:38.992Z,7.60
2019-02-04T09:38:43.430Z,7.87
2019-02-04T09:39:47.894Z,7.73
2019-02-04T09:40:52.361Z,8.10
2019-02-04T09:41:56.897Z,7.60
2019-02-04T09:43:01.431Z,7.07
2019-02-04T09:44:05.826Z,7.47
2019-02-04T09:45:13.027Z,7.67
2019-02-04T09:46:17.455Z,8.10
2019-02-04T09:47:24.975Z,7.33
2019-02-04T09:48:29.421Z,7.87
2019-02-04T09:49:33.870Z,7.93
2019-02-04T09:50:38.993Z,7.87
2019-02-04T09:51:43.765Z,7.50
2019-02-04T09:52:48.231Z,6.90
2019-02-04T09:53:52.664Z,7.90
2019-02-04T09:54:57.184Z,8.03
2019-02-04T09:56:02.397Z,8.00
2019-02-04T09:57:07.007Z,6.90
2019-02-04T09:58:11.684Z,7.23
2019-02-04T09:59:16.136Z,6.13
2019-02-04T10:00:25.934Z,8.03
2019-02-04T10:01:30.520Z,7.70
2019-02-04T10:02:35.160Z,7.20
2019-02-04T10:03:39.971Z,7.03
2019-02-04T10:04:44.505Z,6.90
2019-02-04T10:05:48.934Z,6.37
2019-02-04T10:06:55.321Z,6.80
2019-02-04T10:07:59.488Z,7.07
2019-02-04T10:09:05.400Z,7.10
2019-02-04T10:10:11.132Z,6.67
2019-02-04T10:11:15.935Z,7.13
2019-02-04T10:12:20.772Z,6.77
2019-02-04T10:13:25.338Z,7.03
2019-02-04T10:14:29.882Z,6.50
2019-02-04T10:15:36.957Z,7.23
2019-02-04T10:16:41.470Z,6.77
2019-02-04T10:17:45.967Z,6.77
2019-02-04T10:18:50.756Z,7.20
2019-02-04T10:19:55.343Z,5.90
2019-02-04T10:20:59.869Z,6.57
2019-02-04T10:22:04.655Z,6.30
2019-02-04T10:23:09.282Z,6.93
2019-02-04T10:24:14.032Z,6.67
2019-02-04T10:25:20.784Z,6.03
2019-02-04T10:26:25.451Z,6.27
2019-02-04T10:27:30.887Z,7.50
2019-02-04T10:28:35.406Z,6.43
2019-02-04T10:29:40.096Z,5.80
2019-02-04T10:30:45.043Z,6.30
2019-02-04T10:31:49.845Z,6.10
2019-02-04T10:32:54.587Z,5.80
2019-02-04T10:33:59.259Z,6.10
2019-02-04T10:35:04.188Z,6.53
2019-02-04T10:36:08.909Z,6.23
2019-02-04T10:37:13.525Z,6.10
2019-02-04T10:38:18.520Z,5.87
2019-02-04T10:39:23.093Z,6.50
2019-02-04T10:40:27.942Z,6.00
2019-02-04T10:41:32.418Z,6.17
2019-02-04T10:42:36.868Z,5.93
2019-02-04T10:43:41.414Z,5.80
2019-02-04T10:44:45.886Z,6.53
2019-02-04T10:45:50.380Z,6.60
2019-02-04T10:46:55.507Z,6.10
2019-02-04T10:47:59.937Z,5.90
2019-02-04T10:49:04.740Z,6.30
2019-02-04T10:50:21.993Z,7.20
2019-02-04T10:51:26.549Z,6.53
2019-02-04T10:52:31.344Z,6.27
2019-02-04T10:53:37.168Z,5.87
2019-02-04T10:54:41.730Z,6.50
2019-02-04T10:55:46.360Z,6.03
2019-02-04T10:56:50.825Z,6.27
2019-02-04T10:57:55.471Z,5.80
2019-02-04T10:59:00.159Z,6.10
2019-02-04T11:00:06.159Z,6.17
2019-02-04T11:01:10.697Z,6.30
2019-02-04T11:02:15.385Z,5.80
2019-02-04T11:03:20.210Z,5.80
2019-02-04T11:04:25.400Z,5.47
2019-02-04T11:05:31.384Z,6.03
2019-02-04T11:06:35.937Z,5.93
2019-02-04T11:07:40.975Z,5.87
2019-02-04T11:08:45.486Z,6.23
2019-02-04T11:09:50.034Z,6.50
2019-02-04T11:10:54.964Z,6.13
2019-02-04T11:11:59.846Z,5.90
2019-02-04T11:13:09.603Z,6.23
2019-02-04T11:14:14.183Z,5.80
2019-02-04T11:15:19.445Z,6.13
2019-02-04T11:16:23.918Z,5.43
2019-02-04T11:17:28.394Z,6.07
2019-02-04T11:18:33.013Z,6.23
2019-02-04T11:19:37.610Z,6.77
2019-02-04T11:20:42.426Z,7.07
2019-02-04T11:21:47.178Z,5.90
2019-02-04T11:22:51.935Z,6.33
2019-02-04T11:23:56.564Z,5.63
2019-02-04T11:25:01.263Z,5.50
2019-02-04T11:26:06.075Z,5.97
2019-02-04T11:27:10.937Z,6.20
2019-02-04T11:28:15.635Z,6.27
2019-02-04T11:29:20.144Z,5.53
2019-02-04T11:30:30.088Z,6.13
2019-02-04T11:31:34.721Z,6.03
2019-02-04T11:32:39.405Z,5.83
2019-02-04T11:33:44.241Z,5.97
2019-02-04T11:34:49.332Z,5.70
2019-02-04T11:35:53.889Z,6.83
2019-02-04T11:36:58.425Z,6.13
2019-02-04T11:38:03.223Z,5.87
2019-02-04T11:39:09.920Z,5.77
2019-02-04T11:40:16.735Z,6.17
2019-02-04T11:41:21.222Z,6.40
2019-02-04T11:42:25.711Z,6.10
2019-02-04T11:43:30.622Z,6.63
2019-02-04T11:44:35.203Z,5.53
2019-02-04T11:45:39.868Z,5.97
2019-02-04T11:46:44.416Z,6.37
2019-02-04T11:47:49.086Z,5.93
2019-02-04T11:48:53.507Z,5.77
2019-02-04T11:49:57.865Z,6.87
2019-02-04T11:51:09.346Z,5.77
2019-02-04T11:52:09.017Z,6.30
2019-02-04T11:53:14.055Z,6.20
2019-02-04T11:54:18.524Z,5.63
2019-02-04T11:55:22.980Z,5.70
2019-02-04T11:56:27.536Z,6.43
2019-02-04T11:57:36.118Z,6.70
2019-02-04T11:58:40.491Z,5.97
2019-02-04T11:59:44.941Z,6.17
2019-02-04T12:00:49.626Z,5.70
2019-02-04T12:01:54.212Z,6.43
2019-02-04T12:02:59.702Z,6.27
2019-02-04T12:04:04.374Z,6.60
2019-02-04T12:05:10.678Z,6.07
2019-02-04T12:06:17.486Z,6.50
2019-02-04T12:07:21.770Z,5.90
2019-02-04T12:08:26.404Z,6.23
2019-02-04T12:09:31.211Z,6.13
2019-02-04T12:10:38.759Z,5.97
2019-02-04T12:11:43.447Z,5.80
2019-02-04T12:12:48.109Z,5.93
2019-02-04T12:13:52.934Z,7.60
2019-02-04T12:14:57.634Z,6.30
2019-02-04T12:16:02.076Z,6.30
2019-02-04T12:17:06.638Z,6.00
2019-02-04T12:18:11.211Z,6.43
2019-02-04T12:19:15.971Z,6.20
2019-02-04T12:20:20.673Z,5.70
2019-02-04T12:21:25.187Z,6.03
2019-02-04T12:22:29.782Z,5.87
2019-02-04T12:23:34.248Z,6.67
2019-02-04T12:24:38.782Z,6.00
2019-02-04T12:25:43.260Z,5.87
2019-02-04T12:26:47.714Z,6.10
2019-02-04T12:27:52.477Z,5.83
2019-02-04T12:28:57.870Z,6.00
2019-02-04T12:30:02.492Z,6.30
2019-02-04T12:31:07.685Z,6.20
2019-02-04T12:32:12.407Z,6.00
2019-02-04T12:33:17.373Z,5.97
2019-02-04T12:34:22.038Z,6.10
2019-02-04T12:35:26.789Z,6.50
2019-02-04T12:36:31.332Z,5.87
2019-02-04T12:37:35.981Z,6.30
2019-02-04T12:38:40.529Z,6.30
2019-02-04T12:39:45.017Z,5.30
2019-02-04T12:40:49.740Z,5.83
2019-02-04T12:41:54.402Z,6.10
2019-02-04T12:42:58.962Z,6.40
2019-02-04T12:44:03.631Z,6.10
2019-02-04T12:45:10.863Z,5.90
2019-02-04T12:46:15.536Z,5.33
2019-02-04T12:47:20.157Z,5.97
2019-02-04T12:48:24.749Z,6.10
2019-02-04T12:49:29.596Z,5.50
2019-02-04T12:50:35.539Z,5.83
2019-02-04T12:51:40.110Z,6.80
2019-02-04T12:52:44.592Z,5.80
2019-02-04T12:53:49.285Z,5.20
2019-02-04T12:54:53.909Z,5.77
2019-02-04T12:55:58.349Z,5.70
2019-02-04T12:57:03.044Z,5.73
2019-02-04T12:58:07.625Z,5.53
2019-02-04T12:59:12.639Z,5.60
2019-02-04T13:00:19.714Z,5.13
2019-02-04T13:01:24.381Z,5.43
2019-02-04T13:02:29.080Z,5.73
2019-02-04T13:03:34.023Z,5.30
2019-02-04T13:04:38.449Z,5.23
2019-02-04T13:05:48.423Z,5.50
2019-02-04T13:06:53.086Z,5.50
2019-02-04T13:07:57.670Z,5.60
2019-02-04T13:09:02.469Z,5.17
2019-02-04T13:10:07.667Z,5.70
2019-02-04T13:11:12.362Z,5.77
2019-02-04T13:12:16.904Z,4.87
2019-02-04T13:13:22.759Z,5.63
2019-02-04T13:14:27.276Z,5.10
2019-02-04T13:15:31.866Z,5.73
2019-02-04T13:16:36.419Z,5.20
2019-02-04T13:17:40.982Z,6.50
2019-02-04T13:18:45.472Z,5.90
2019-02-04T13:19:50.228Z,5.13
2019-02-04T13:20:54.746Z,5.00
2019-02-04T13:21:59.318Z,5.67
2019-02-04T13:23:03.849Z,5.57
2019-02-04T13:24:08.449Z,5.20
2019-02-04T13:25:15.398Z,5.80
2019-02-04T13:26:19.983Z,5.13
2019-02-04T13:27:24.382Z,4.50
2019-02-04T13:28:29.280Z,5.50
2019-02-04T13:29:33.985Z,4.97
2019-02-04T13:30:38.647Z,5.10
2019-02-04T13:31:43.121Z,5.13
2019-02-04T13:32:47.622Z,5.10
2019-02-04T13:33:52.109Z,5.00
2019-02-04T13:34:56.676Z,5.03
2019-02-04T13:37:15.857Z,5.43
2019-02-04T13:38:20.494Z,4.63
2019-02-04T13:39:25.126Z,4.60
2019-02-04T13:40:30.083Z,5.03
2019-02-04T13:41:36.065Z,4.90
2019-02-04T13:42:40.768Z,4.53
2019-02-04T13:43:45.311Z,4.67
2019-02-04T13:44:49.734Z,4.43
2019-02-04T13:45:54.362Z,4.77
2019-02-04T13:46:58.988Z,4.90
2019-02-04T13:48:03.507Z,4.17
2019-02-04T13:49:08.556Z,4.90
2019-02-04T13:50:14.252Z,4.80
2019-02-04T13:51:19.283Z,5.77
2019-02-04T13:52:23.938Z,5.70
2019-02-04T13:53:28.504Z,4.80
2019-02-04T13:54:34.228Z,4.30
2019-02-04T13:55:40.555Z,5.10
2019-02-04T13:56:45.890Z,4.70
2019-02-04T13:57:51.291Z,4.50
2019-02-04T13:58:55.842Z,4.97
2019-02-04T14:00:00.545Z,4.50
2019-02-04T14:01:05.932Z,4.60
2019-02-04T14:02:13.387Z,4.50
2019-02-04T14:03:17.953Z,4.50
2019-02-04T14:04:22.618Z,4.40
2019-02-04T14:05:27.116Z,4.90
2019-02-04T14:06:32.036Z,4.27